Terminal Aerodrome Forecast
Issued by NWS

Home | Current Version | Previous Version | Text Only | Print | Product List | Glossary On
Versions: 1 2 3 4 5 6 7 8 9 10 11 12 13 14 15 16 17 18 19 20 21 22 23
000
FTUS41 KOKX 040500 RRA
TAFSWF
TAF
KSWF 040551Z 0406/0512 25009KT 4SM -FZRA BR SCT006 OVC010
      WS020/25045KT
     FM041000 25010KT 4SM BR SCT010 BKN020
     FM041700 27010KT P6SM SCT012 BKN050
     FM050000 29005KT 6SM BR BKN020 OVC050
     FM050600 33005KT 2SM -SN BR OVC008
     FM051000 34009KT 1SM -SN BR OVC008
      AMD NOT SKED=

USA.gov is the U.S. government's official web portal to all federal, state and local government web resources and services.